Time;durP1;ratioP1;P1;durP2;ratioP2;P2;SDS_P1;SDS_P2;PMS_P1;PMS_P2;Temp;Humidity;BMP_temperature;BMP_pressure;BME280_temperature;BME280_humidity;BME280_pressure;Samples;Min_cycle;Max_cycle;Signal;HPM_P1;HPM_P2
2022/01/30 00:02:06;;;;;;;33.40;6.50;;;;;;;4.89;80.44;100676.00;4932639;29;20175;-44
2022/01/30 00:04:31;;;;;;;42.42;8.02;;;;;;;4.78;81.95;100647.91;4932771;29;20179;-43
2022/01/30 00:06:56;;;;;;;28.77;6.40;;;;;;;4.74;82.11;100660.34;4933070;29;20183;-45
2022/01/30 00:09:23;;;;;;;31.10;6.07;;;;;;;4.68;82.39;100668.41;4932831;29;20702;-44
2022/01/30 00:11:57;;;;;;;37.45;6.28;;;;;;;4.69;82.87;100689.59;4933055;29;20215;-44
2022/01/30 00:14:23;;;;;;;30.45;6.43;;;;;;;4.55;83.48;100691.63;4932418;29;20644;-43
2022/01/30 00:16:57;;;;;;;25.35;5.25;;;;;;;4.51;82.26;100664.25;4932815;29;20242;-44
2022/01/30 00:19:30;;;;;;;22.70;4.45;;;;;;;4.47;82.06;100698.81;4931463;29;20190;-44
2022/01/30 00:22:13;;;;;;;26.42;5.30;;;;;;;4.42;82.29;100701.53;4932971;29;20255;-43
2022/01/30 00:27:18;;;;;;;25.35;7.15;;;;;;;4.32;83.54;100690.19;4932215;29;20578;-44
2022/01/30 00:29:44;;;;;;;31.88;6.05;;;;;;;4.31;83.60;100669.88;4931680;29;20171;-44
2022/01/30 00:32:12;;;;;;;26.15;5.53;;;;;;;4.29;83.84;100673.47;4931436;29;20184;-44
2022/01/30 00:34:39;;;;;;;26.83;5.72;;;;;;;4.38;82.55;100662.69;4932414;29;20731;-44
2022/01/30 00:37:05;;;;;;;34.00;6.45;;;;;;;4.42;81.89;100644.97;4931438;29;20191;-44
2022/01/30 00:39:31;;;;;;;25.85;6.63;;;;;;;4.43;80.87;100597.19;4932349;29;20207;-43
2022/01/30 00:41:56;;;;;;;28.60;5.57;;;;;;;4.47;79.71;100619.25;4931538;29;20258;-43
2022/01/30 00:44:21;;;;;;;25.15;5.20;;;;;;;4.46;78.93;100638.69;4931869;29;20270;-46
2022/01/30 00:46:47;;;;;;;27.42;5.70;;;;;;;4.50;78.76;100613.88;4931743;29;20206;-42
2022/01/30 00:49:13;;;;;;;36.33;6.88;;;;;;;4.51;79.05;100635.06;4932348;29;20543;-44
2022/01/30 00:51:38;;;;;;;30.85;6.57;;;;;;;4.49;79.95;100636.00;4915536;29;20190;-44
2022/01/30 00:54:05;;;;;;;38.90;7.47;;;;;;;4.51;80.14;100637.72;4932204;29;20715;-45
2022/01/30 00:56:31;;;;;;;31.83;6.80;;;;;;;4.49;80.36;100642.19;4932780;29;20180;-43
2022/01/30 00:58:57;;;;;;;29.35;6.28;;;;;;;4.44;80.33;100628.13;4931438;29;20203;-43
2022/01/30 01:01:23;;;;;;;28.35;6.07;;;;;;;4.48;79.47;100648.41;4931237;29;20227;-42
2022/01/30 01:03:48;;;;;;;27.52;5.68;;;;;;;4.41;80.02;100645.84;4931362;29;20211;-44
2022/01/30 01:06:14;;;;;;;26.95;4.88;;;;;;;4.44;79.69;100641.38;4915844;29;20167;-42
2022/01/30 01:08:50;;;;;;;31.23;5.82;;;;;;;4.45;78.90;100650.22;4931391;29;20211;-43
2022/01/30 01:24:30;;;;;;;36.33;5.57;;;;;;;4.72;75.98;100651.53;4935921;29;20278;-41
2022/01/30 01:26:55;;;;;;;25.70;5.68;;;;;;;4.73;75.71;100667.44;4935108;29;20191;-42
2022/01/30 01:29:21;;;;;;;30.73;5.70;;;;;;;4.75;75.94;100655.00;4935189;29;20474;-46
2022/01/30 01:31:46;;;;;;;33.40;6.97;;;;;;;4.81;75.58;100662.00;4935876;29;20186;-47
2022/01/30 01:34:32;;;;;;;33.42;6.38;;;;;;;4.83;75.59;100638.97;4935501;29;20175;-46
2022/01/30 01:36:58;;;;;;;34.03;6.15;;;;;;;4.89;75.29;100686.63;4935861;29;20203;-46
2022/01/30 01:39:23;;;;;;;30.85;5.75;;;;;;;4.94;74.78;100670.59;4934716;29;20257;-45
2022/01/30 01:41:49;;;;;;;27.88;6.15;;;;;;;4.91;75.95;100665.38;4935927;29;20692;-47
2022/01/30 01:44:34;;;;;;;29.05;5.60;;;;;;;4.93;76.11;100647.63;4933866;29;20290;-48
2022/01/30 01:47:00;;;;;;;37.60;7.43;;;;;;;4.97;76.29;100690.94;4935804;29;20199;-43
2022/01/30 01:49:30;;;;;;;33.13;8.20;;;;;;;5.03;75.89;100673.13;4934266;29;20187;-47
2022/01/30 01:52:18;;;;;;;39.85;7.53;;;;;;;4.98;76.77;100677.63;4936036;29;20167;-48
2022/01/30 01:54:50;;;;;;;35.33;7.88;;;;;;;5.00;76.36;100669.63;4933618;29;20283;-44
2022/01/30 01:57:16;;;;;;;30.27;6.45;;;;;;;5.01;75.92;100695.25;4934420;29;20274;-47
2022/01/30 01:59:51;;;;;;;36.45;6.93;;;;;;;5.10;75.10;100684.50;4934218;29;20568;-48
2022/01/30 02:02:36;;;;;;;32.85;6.82;;;;;;;4.93;77.67;100688.31;4935572;29;20590;-48
2022/01/30 02:05:03;;;;;;;37.83;6.90;;;;;;;4.99;77.17;100684.69;4933675;29;20278;-47
2022/01/30 02:10:18;;;;;;;35.78;6.75;;;;;;;5.06;75.94;100680.16;4935385;29;20214;-46
2022/01/30 02:12:50;;;;;;;36.90;6.63;;;;;;;5.17;75.32;100675.50;4934090;29;20169;-43
2022/01/30 02:26:02;;;;;;;35.00;6.82;;;;;;;5.08;76.45;100665.06;4935165;29;20515;-48
2022/01/30 02:28:31;;;;;;;34.70;7.82;;;;;;;5.07;76.67;100674.81;4918119;29;20199;-47
2022/01/30 02:33:23;;;;;;;29.08;7.15;;;;;;;5.11;77.12;100665.00;4933778;29;20164;-44
2022/01/30 02:35:49;;;;;;;33.00;8.85;;;;;;;5.07;76.74;100663.31;4933763;29;20171;-41
2022/01/30 02:38:19;;;;;;;38.20;7.05;;;;;;;5.15;76.79;100677.31;4933905;29;20192;-42
2022/01/30 02:40:48;;;;;;;33.97;8.20;;;;;;;5.11;76.45;100686.25;4933729;29;20208;-47
2022/01/30 02:43:16;;;;;;;34.70;7.70;;;;;;;5.06;76.94;100694.28;4934877;29;20195;-40
2022/01/30 02:45:49;;;;;;;44.20;7.25;;;;;;;5.07;76.12;100690.75;4933601;29;20183;-41
2022/01/30 02:48:19;;;;;;;34.83;6.55;;;;;;;5.13;75.90;100657.88;4933346;29;20195;-43
2022/01/30 02:53:12;;;;;;;33.17;6.65;;;;;;;5.02;76.87;100670.47;4933445;29;20198;-45
2022/01/30 02:55:38;;;;;;;40.80;7.90;;;;;;;5.06;77.07;100694.28;4925686;29;20179;-43
2022/01/30 02:58:06;;;;;;;33.33;7.05;;;;;;;5.16;76.00;100685.28;4943366;28;20687;-41
2022/01/30 03:00:32;;;;;;;34.70;6.93;;;;;;;5.18;75.85;100705.59;4951608;29;20549;-42
2022/01/30 03:02:57;;;;;;;37.67;7.75;;;;;;;5.14;75.68;100684.41;4952134;29;20214;-46
2022/01/30 03:05:23;;;;;;;35.28;6.45;;;;;;;5.09;76.61;100666.81;4949857;29;20261;-43
2022/01/30 03:07:49;;;;;;;34.35;6.70;;;;;;;5.19;76.09;100684.34;4952301;28;20202;-47
2022/01/30 03:10:15;;;;;;;29.15;7.63;;;;;;;5.09;76.46;100712.81;4936156;29;20179;-47
2022/01/30 03:12:41;;;;;;;43.05;7.28;;;;;;;5.07;77.20;100687.19;4935907;29;20639;-46
2022/01/30 03:15:08;;;;;;;34.08;6.55;;;;;;;5.04;77.58;100696.09;4951652;29;20556;-47
2022/01/30 03:17:33;;;;;;;28.50;6.78;;;;;;;5.07;77.60;100711.09;4951776;28;20289;-46
2022/01/30 03:19:59;;;;;;;30.83;6.72;;;;;;;5.07;77.25;100681.88;4953164;28;20497;-40
2022/01/30 03:22:26;;;;;;;29.30;6.57;;;;;;;5.14;75.78;100687.06;4951544;29;20175;-42
2022/01/30 03:24:51;;;;;;;36.25;7.15;;;;;;;5.12;76.76;100701.28;4951137;29;20174;-44
2022/01/30 03:27:31;;;;;;;37.38;7.68;;;;;;;5.10;76.47;100727.00;4951637;28;20205;-42
2022/01/30 03:30:06;;;;;;;28.83;6.88;;;;;;;5.06;77.06;100719.97;4951690;29;20632;-45
2022/01/30 03:32:58;;;;;;;34.72;7.35;;;;;;;5.06;76.05;100699.59;4951560;28;20175;-49
2022/01/30 03:35:24;;;;;;;31.25;6.85;;;;;;;5.10;75.52;100695.13;4951844;29;20289;-41
2022/01/30 03:37:50;;;;;;;42.20;8.10;;;;;;;5.11;75.66;100697.72;4951683;28;20633;-44
2022/01/30 03:40:16;;;;;;;38.78;8.27;;;;;;;5.10;75.69;100722.56;4952131;28;20183;-48
2022/01/30 03:42:41;;;;;;;43.17;8.07;;;;;;;5.13;75.93;100716.31;4951534;29;20198;-41
2022/01/30 03:45:11;;;;;;;36.35;7.65;;;;;;;5.14;76.28;100734.00;4950652;29;20214;-42
2022/01/30 03:47:37;;;;;;;41.72;8.38;;;;;;;5.17;76.32;100704.72;4935532;29;20344;-46
2022/01/30 03:50:03;;;;;;;36.13;6.97;;;;;;;5.16;76.46;100740.19;4951477;29;20171;-42
2022/01/30 03:52:29;;;;;;;39.45;7.85;;;;;;;5.12;76.22;100728.72;4951220;29;20581;-44
2022/01/30 03:54:54;;;;;;;36.22;6.80;;;;;;;5.12;76.88;100722.53;4951199;29;20190;-42
2022/01/30 03:57:20;;;;;;;38.78;6.95;;;;;;;5.09;77.01;100725.22;4952501;28;20221;-43
2022/01/30 03:59:45;;;;;;;30.05;6.82;;;;;;;5.02;77.53;100708.53;4932338;29;20196;-42
2022/01/30 04:02:11;;;;;;;45.75;7.78;;;;;;;5.01;77.34;100720.06;4916270;29;20194;-43
2022/01/30 04:04:37;;;;;;;33.63;7.85;;;;;;;4.98;77.62;100722.75;4933016;29;20286;-47
2022/01/30 04:07:03;;;;;;;40.72;8.48;;;;;;;5.03;76.90;100751.88;4933292;29;20203;-42
2022/01/30 04:09:46;;;;;;;34.65;7.85;;;;;;;5.08;76.67;100723.50;4933293;29;20242;-41
2022/01/30 04:12:35;;;;;;;37.67;7.57;;;;;;;5.15;76.53;100727.78;4933178;29;20198;-42
2022/01/30 04:15:24;;;;;;;39.45;8.80;;;;;;;5.19;75.79;100750.72;4918663;29;20209;-42
2022/01/30 04:18:13;;;;;;;40.25;6.80;;;;;;;5.18;75.37;100714.44;4932051;29;20215;-42
2022/01/30 04:20:47;;;;;;;36.50;7.40;;;;;;;5.20;74.55;100715.28;4916988;29;20709;-43
2022/01/30 04:23:32;;;;;;;35.08;6.32;;;;;;;5.23;74.56;100725.00;4932903;29;20191;-46
2022/01/30 04:26:07;;;;;;;39.38;7.97;;;;;;;5.15;75.40;100767.63;4931553;29;20193;-43
2022/01/30 04:28:51;;;;;;;45.22;8.65;;;;;;;5.14;76.48;100757.91;4933225;29;20652;-42
2022/01/30 04:31:49;;;;;;;40.90;7.45;;;;;;;5.25;76.61;100755.94;4931628;29;20286;-43
2022/01/30 04:34:32;;;;;;;33.03;7.50;;;;;;;5.14;76.96;100766.75;4931633;29;20159;-41
2022/01/30 04:37:04;;;;;;;35.08;7.35;;;;;;;5.15;77.45;100786.22;4933227;29;20242;-42
2022/01/30 04:40:21;;;;;;;38.83;7.20;;;;;;;5.20;76.46;100749.81;4932674;29;20178;-45
2022/01/30 04:58:31;;;;;;;33.58;7.32;;;;;;;5.28;74.91;100814.31;4941683;28;20220;-42
2022/01/30 05:01:36;;;;;;;38.92;8.23;;;;;;;5.23;75.83;100832.13;4955505;29;20213;-42
2022/01/30 05:04:44;;;;;;;33.28;6.28;;;;;;;5.23;76.39;100820.63;4944292;29;20271;-44
2022/01/30 05:07:35;;;;;;;38.75;7.03;;;;;;;5.21;76.39;100806.50;4946665;28;20182;-41
2022/01/30 05:10:20;;;;;;;31.90;6.53;;;;;;;5.21;76.83;100823.28;4955502;29;20365;-42
2022/01/30 05:13:01;;;;;;;32.10;7.07;;;;;;;5.16;76.93;100822.50;4955686;28;20166;-42
2022/01/30 05:15:45;;;;;;;33.72;7.38;;;;;;;5.05;77.62;100812.06;4955234;29;20739;-41
2022/01/30 05:18:32;;;;;;;39.03;7.03;;;;;;;4.94;78.07;100817.53;4955398;28;20214;-41
2022/01/30 05:21:36;;;;;;;31.08;6.28;;;;;;;4.92;78.37;100859.16;4933543;29;20265;-43
2022/01/30 05:24:13;;;;;;;29.23;6.68;;;;;;;4.89;78.34;100872.44;4933623;29;20262;-45
2022/01/30 05:27:00;;;;;;;30.65;6.47;;;;;;;4.96;77.39;100865.28;4947571;28;20306;-43
2022/01/30 05:29:37;;;;;;;33.47;6.35;;;;;;;4.91;77.21;100865.34;4954126;29;20229;-42
2022/01/30 05:32:14;;;;;;;32.30;6.60;;;;;;;4.93;77.26;100858.22;4954067;29;20420;-40
2022/01/30 05:34:54;;;;;;;33.40;5.95;;;;;;;4.92;77.44;100871.56;4953448;29;20174;-42
2022/01/30 05:37:59;;;;;;;35.25;8.43;;;;;;;4.87;78.12;100870.72;4914563;29;20208;-43
2022/01/30 05:40:53;;;;;;;35.90;7.70;;;;;;;4.80;79.21;100874.38;4914609;29;20187;-46
2022/01/30 05:43:39;;;;;;;35.15;6.55;;;;;;;4.75;79.52;100885.91;4946257;28;20223;-42
2022/01/30 05:46:37;;;;;;;34.40;7.63;;;;;;;4.86;78.86;100876.94;4939492;28;20270;-45
2022/01/30 05:49:21;;;;;;;38.10;8.00;;;;;;;4.77;78.86;100862.03;4953528;29;20167;-46
2022/01/30 05:52:06;;;;;;;34.97;7.10;;;;;;;4.74;77.75;100915.13;4955011;29;20526;-46
2022/01/30 05:54:37;;;;;;;41.40;7.68;;;;;;;4.75;77.68;100928.38;4953263;29;20170;-43
2022/01/30 05:57:02;;;;;;;37.47;8.13;;;;;;;4.86;76.68;100930.91;4951950;28;20202;-41
2022/01/30 05:59:28;;;;;;;34.75;6.70;;;;;;;4.88;75.86;100933.56;4937485;29;20182;-43
2022/01/30 06:02:08;;;;;;;40.28;8.45;;;;;;;4.89;74.67;100957.41;4953369;29;20171;-45
2022/01/30 06:04:33;;;;;;;30.65;6.28;;;;;;;4.89;74.74;100962.72;4952954;29;20226;-41
2022/01/30 06:07:00;;;;;;;28.30;6.10;;;;;;;4.89;74.04;100996.34;4954591;28;20278;-40
2022/01/30 06:09:26;;;;;;;34.97;6.93;;;;;;;4.94;73.68;100987.44;4953101;29;20167;-46
2022/01/30 06:11:53;;;;;;;32.63;6.97;;;;;;;4.95;73.35;101004.25;4953066;29;20219;-41
2022/01/30 06:14:22;;;;;;;32.65;6.82;;;;;;;4.91;73.17;100992.78;4952598;29;20198;-42
2022/01/30 06:16:49;;;;;;;32.95;6.68;;;;;;;4.93;73.01;101006.91;4952926;28;20289;-41
2022/01/30 06:19:35;;;;;;;38.38;6.35;;;;;;;4.95;73.42;101015.75;4954027;29;20731;-42
2022/01/30 06:22:19;;;;;;;28.25;5.90;;;;;;;4.88;73.72;101016.72;4954754;29;20221;-44
2022/01/30 06:25:04;;;;;;;31.17;6.15;;;;;;;4.88;74.39;101035.31;4953859;29;20178;-46
2022/01/30 06:28:04;;;;;;;32.42;5.95;;;;;;;4.91;74.56;101045.88;4954109;28;20205;-41
2022/01/30 06:30:39;;;;;;;27.23;6.72;;;;;;;4.94;75.19;101051.16;4953876;29;20253;-45
2022/01/30 06:33:28;;;;;;;46.28;8.50;;;;;;;4.88;75.60;101069.81;4926046;28;20183;-45
2022/01/30 06:36:12;;;;;;;37.95;7.50;;;;;;;4.88;76.24;101076.91;4954419;29;20662;-42
2022/01/30 06:38:43;;;;;;;42.58;8.30;;;;;;;4.84;76.75;101056.59;4942331;29;20184;-46
2022/01/30 06:41:29;;;;;;;40.63;7.65;;;;;;;4.87;75.15;101088.41;4933329;29;20206;-43
2022/01/30 06:44:26;;;;;;;26.77;6.07;;;;;;;4.86;74.63;101111.44;4933768;29;20210;-41
2022/01/30 06:47:12;;;;;;;29.33;6.15;;;;;;;4.88;73.69;101099.03;4934683;29;20294;-40
2022/01/30 06:49:56;;;;;;;39.47;6.95;;;;;;;4.88;73.71;101090.19;4933967;29;20174;-44
2022/01/30 06:52:40;;;;;;;30.42;6.72;;;;;;;4.92;73.30;101139.69;4934692;29;20557;-44
2022/01/30 06:55:44;;;;;;;27.98;6.75;;;;;;;4.92;72.58;101175.09;4912599;29;20195;-41
2022/01/30 06:58:28;;;;;;;34.47;6.72;;;;;;;4.93;73.63;101163.56;4932931;29;20214;-45
2022/01/30 07:01:12;;;;;;;31.85;6.55;;;;;;;4.92;73.20;101180.41;4934421;29;20215;-44
2022/01/30 07:04:04;;;;;;;36.45;7.05;;;;;;;4.90;74.04;101168.91;4933446;29;20215;-46
2022/01/30 07:06:49;;;;;;;32.00;7.10;;;;;;;4.90;73.71;101190.16;4933214;29;20289;-46
2022/01/30 07:09:14;;;;;;;37.78;6.68;;;;;;;4.85;73.96;101191.94;4932213;29;20282;-43
2022/01/30 07:11:40;;;;;;;33.85;6.70;;;;;;;4.83;74.44;101200.81;4937337;29;20342;-46
2022/01/30 07:14:05;;;;;;;33.78;7.32;;;;;;;4.87;73.70;101189.28;4931301;28;20262;-45
2022/01/30 07:16:31;;;;;;;33.47;6.55;;;;;;;4.88;73.51;101199.03;4930769;29;20191;-43
2022/01/30 07:18:57;;;;;;;31.77;6.22;;;;;;;4.85;72.89;101202.56;4930374;29;20175;-44
2022/01/30 07:21:22;;;;;;;31.20;6.63;;;;;;;4.83;72.49;101195.50;4930345;29;20254;-48
2022/01/30 07:23:49;;;;;;;27.58;6.25;;;;;;;4.82;72.49;101202.59;4930134;29;20227;-44
2022/01/30 07:26:14;;;;;;;40.63;7.05;;;;;;;4.81;72.31;101210.56;4931539;29;20728;-46
2022/01/30 07:28:40;;;;;;;35.58;6.78;;;;;;;4.80;72.70;101203.53;4931820;29;20679;-45
2022/01/30 07:31:05;;;;;;;32.72;7.00;;;;;;;4.83;71.59;101200.81;4932328;29;20231;-43
2022/01/30 07:33:31;;;;;;;39.78;7.85;;;;;;;4.82;71.82;101184.03;4931628;29;20270;-47
2022/01/30 07:35:57;;;;;;;38.90;7.45;;;;;;;4.78;71.77;101203.53;4933194;29;20248;-48
2022/01/30 07:38:23;;;;;;;38.08;6.93;;;;;;;4.77;71.82;101204.44;4933633;29;20187;-48
2022/01/30 07:40:50;;;;;;;28.60;6.82;;;;;;;4.83;70.90;101220.31;4934931;29;20194;-47
2022/01/30 07:43:16;;;;;;;34.00;7.18;;;;;;;4.75;70.96;101224.78;4931182;29;20849;-46
2022/01/30 07:45:51;;;;;;;30.27;7.22;;;;;;;4.79;71.21;101199.09;4930528;29;20192;-47
2022/01/30 07:48:16;;;;;;;30.95;6.75;;;;;;;4.75;71.11;101191.16;4931412;29;20211;-45
2022/01/30 07:50:42;;;;;;;39.50;7.00;;;;;;;4.79;70.91;101241.56;4931834;29;20266;-46
2022/01/30 07:53:07;;;;;;;35.25;7.40;;;;;;;4.80;71.17;101240.69;4930965;29;20179;-45
2022/01/30 07:55:33;;;;;;;40.22;8.65;;;;;;;4.76;72.06;101255.75;4931404;29;20187;-46
2022/01/30 07:57:58;;;;;;;36.13;7.22;;;;;;;4.68;72.84;101257.56;4931798;29;20282;-46
2022/01/30 08:00:23;;;;;;;34.83;6.75;;;;;;;4.68;73.32;101269.09;4933826;29;20379;-45
2022/01/30 08:02:50;;;;;;;50.80;8.40;;;;;;;4.74;72.91;101265.47;4930766;29;20322;-46
2022/01/30 08:05:15;;;;;;;39.17;7.10;;;;;;;4.70;72.21;101251.38;4930516;29;20246;-46
2022/01/30 08:07:41;;;;;;;41.83;7.35;;;;;;;4.78;70.82;101284.94;4931324;29;20668;-46
2022/01/30 08:10:06;;;;;;;40.28;7.63;;;;;;;4.78;70.05;101283.16;4930597;29;20181;-48
2022/01/30 08:12:32;;;;;;;37.83;7.90;;;;;;;4.74;70.42;101298.25;4930160;29;20187;-45
2022/01/30 08:14:57;;;;;;;41.72;6.57;;;;;;;4.70;70.22;101300.91;4931597;29;20198;-46
2022/01/30 08:17:23;;;;;;;47.33;8.43;;;;;;;4.70;69.41;101306.22;4931798;29;20222;-47
2022/01/30 08:19:51;;;;;;;43.90;8.05;;;;;;;4.74;69.02;101300.91;4931386;29;20184;-47
2022/01/30 08:22:16;;;;;;;40.25;7.15;;;;;;;4.77;67.24;101291.13;4930277;29;20171;-49
2022/01/30 08:24:42;;;;;;;35.53;6.75;;;;;;;4.73;67.44;101282.31;4932104;29;20299;-47
2022/01/30 08:27:07;;;;;;;42.83;7.65;;;;;;;4.77;65.93;101326.53;4931700;29;20239;-47
2022/01/30 08:29:33;;;;;;;38.90;7.25;;;;;;;4.76;65.50;101311.47;4932094;29;20180;-49
2022/01/30 08:31:59;;;;;;;40.95;7.68;;;;;;;4.78;66.10;101330.94;4931635;29;20784;-45
2022/01/30 08:34:26;;;;;;;34.72;6.32;;;;;;;4.75;66.49;101321.22;4928942;29;20214;-47
2022/01/30 08:36:52;;;;;;;39.13;7.60;;;;;;;4.75;67.08;101334.50;4927562;29;20327;-49
2022/01/30 08:39:18;;;;;;;51.28;9.13;;;;;;;4.81;67.77;101354.84;4931492;29;20175;-45
2022/01/30 08:41:44;;;;;;;35.20;7.88;;;;;;;4.85;67.24;101358.34;4931809;29;20233;-48
2022/01/30 08:44:09;;;;;;;43.47;7.22;;;;;;;4.86;67.33;101357.47;4928198;29;20684;-46
2022/01/30 08:46:35;;;;;;;40.20;8.85;;;;;;;4.94;67.23;101376.84;4930206;29;20292;-47
2022/01/30 08:49:00;;;;;;;40.95;7.85;;;;;;;4.97;67.28;101379.50;4930335;29;20631;-45
2022/01/30 08:51:26;;;;;;;43.63;8.68;;;;;;;4.97;67.52;101366.22;4931428;29;20191;-46
2022/01/30 08:53:51;;;;;;;38.20;7.45;;;;;;;5.00;66.44;101352.91;4929529;29;20659;-48
2022/01/30 08:56:18;;;;;;;40.08;7.32;;;;;;;5.00;67.05;101392.75;4932110;29;20189;-49
2022/01/30 08:58:44;;;;;;;31.58;7.53;;;;;;;5.09;67.02;101383.84;4932652;29;20201;-47
2022/01/30 09:01:12;;;;;;;37.22;7.63;;;;;;;5.20;66.08;101384.66;4931685;29;20188;-47
2022/01/30 09:03:37;;;;;;;41.60;8.43;;;;;;;5.15;66.93;101395.31;4932681;29;20199;-47
2022/01/30 09:06:03;;;;;;;38.22;7.80;;;;;;;5.20;66.07;101410.34;4932842;29;20172;-45
2022/01/30 09:08:28;;;;;;;42.97;8.35;;;;;;;5.15;66.52;101390.00;4933196;29;20195;-48
2022/01/30 09:10:54;;;;;;;43.85;7.55;;;;;;;5.14;66.27;101413.94;4932804;29;20176;-46
2022/01/30 09:13:20;;;;;;;50.08;7.20;;;;;;;5.24;66.68;101405.00;4932857;29;20183;-47
2022/01/30 09:15:45;;;;;;;43.25;8.77;;;;;;;5.25;66.85;101427.16;4932529;29;20527;-46
2022/01/30 09:18:11;;;;;;;42.85;8.18;;;;;;;5.29;65.83;101436.84;4932716;29;20203;-47
2022/01/30 09:20:39;;;;;;;41.90;7.75;;;;;;;5.37;66.43;101437.66;4932849;29;20175;-46
2022/01/30 09:23:05;;;;;;;47.83;8.20;;;;;;;5.35;66.08;101444.78;4932530;29;20620;-43
2022/01/30 09:25:31;;;;;;;30.85;6.85;;;;;;;5.49;66.35;101442.03;4932332;29;20214;-48
2022/01/30 09:27:56;;;;;;;39.45;8.00;;;;;;;5.51;67.16;101458.81;4930849;29;20278;-45
2022/01/30 09:30:22;;;;;;;39.88;8.32;;;;;;;5.46;66.18;101436.72;4931348;29;20680;-44
2022/01/30 09:32:48;;;;;;;38.10;8.07;;;;;;;5.47;66.15;101427.88;4936553;29;20185;-46
2022/01/30 09:35:14;;;;;;;42.83;8.63;;;;;;;5.60;66.41;101469.41;4934421;29;20179;-47
2022/01/30 09:37:39;;;;;;;41.70;8.27;;;;;;;5.60;66.34;101474.72;4936446;29;20207;-45
2022/01/30 09:40:06;;;;;;;34.33;7.72;;;;;;;5.54;66.84;101477.44;4937448;29;20171;-46
2022/01/30 09:42:31;;;;;;;38.20;7.68;;;;;;;5.67;67.45;101478.22;4935182;29;20203;-45
2022/01/30 09:45:00;;;;;;;36.53;7.97;;;;;;;5.67;66.74;101484.41;4934029;29;20294;-46
2022/01/30 09:47:26;;;;;;;46.90;8.23;;;;;;;5.64;66.43;101505.72;4935574;29;20696;-47
2022/01/30 09:49:55;;;;;;;37.90;7.30;;;;;;;5.56;66.32;101505.75;4936284;29;20203;-47
2022/01/30 09:52:20;;;;;;;36.88;8.73;;;;;;;5.44;66.97;101494.31;4934699;29;20569;-46
2022/01/30 09:54:47;;;;;;;38.35;8.15;;;;;;;5.51;66.79;101499.59;4935308;29;20176;-45
2022/01/30 09:57:13;;;;;;;39.03;7.68;;;;;;;5.64;67.11;101505.72;4935456;29;20282;-45
2022/01/30 09:59:39;;;;;;;37.17;8.13;;;;;;;5.57;66.93;101509.28;4935369;29;20286;-47
2022/01/30 10:02:06;;;;;;;39.42;7.60;;;;;;;5.53;66.93;101520.81;4935927;29;20190;-46
2022/01/30 10:04:32;;;;;;;36.22;8.18;;;;;;;5.65;66.86;101523.41;4934718;29;20210;-45
2022/01/30 10:07:04;;;;;;;40.63;8.60;;;;;;;5.71;66.77;101526.03;4935474;29;20601;-45
2022/01/30 10:09:33;;;;;;;41.40;8.45;;;;;;;5.73;67.17;101526.03;4935450;29;20179;-47
2022/01/30 10:12:16;;;;;;;34.75;7.10;;;;;;;5.65;66.36;101539.38;4935596;29;20581;-47
2022/01/30 10:14:50;;;;;;;39.38;7.53;;;;;;;5.76;65.66;101526.88;4935229;29;20198;-42
2022/01/30 10:17:50;;;;;;;46.15;8.55;;;;;;;5.76;65.80;101542.84;4935475;29;20622;-46
2022/01/30 10:20:18;;;;;;;40.67;9.00;;;;;;;5.80;65.73;101543.72;4935258;29;20286;-45
2022/01/30 10:22:58;;;;;;;42.17;7.43;;;;;;;5.80;66.19;101549.03;4935443;29;20172;-48
2022/01/30 10:25:28;;;;;;;36.80;7.45;;;;;;;5.73;65.67;101552.63;4935647;29;20210;-47
2022/01/30 10:28:12;;;;;;;38.13;7.70;;;;;;;5.94;65.51;101567.53;4935415;29;20195;-47
2022/01/30 10:30:51;;;;;;;34.95;8.20;;;;;;;5.81;64.89;101576.50;4935533;29;20187;-47
2022/01/30 10:33:21;;;;;;;38.72;7.80;;;;;;;5.90;65.23;101587.06;4934998;29;20178;-49
2022/01/30 10:35:53;;;;;;;44.72;8.13;;;;;;;5.82;65.70;101589.78;4935025;29;20664;-48
2022/01/30 10:38:19;;;;;;;36.08;6.95;;;;;;;5.83;64.90;101578.25;4935458;29;20751;-46
2022/01/30 10:40:52;;;;;;;32.63;7.47;;;;;;;5.85;64.24;101588.88;4934965;29;20180;-47
2022/01/30 10:43:18;;;;;;;39.10;8.05;;;;;;;5.92;65.04;101601.22;4933873;29;20250;-44
2022/01/30 10:45:43;;;;;;;47.88;8.57;;;;;;;5.87;65.29;101587.09;4934743;29;20636;-46
2022/01/30 10:48:17;;;;;;;39.25;7.07;;;;;;;5.95;64.61;101595.94;4935107;29;20211;-48
2022/01/30 10:50:47;;;;;;;41.35;8.30;;;;;;;5.89;64.84;101593.28;4934474;29;20183;-46
2022/01/30 10:53:22;;;;;;;37.47;7.43;;;;;;;5.87;64.22;101592.41;4934953;29;20172;-48
2022/01/30 10:55:48;;;;;;;41.17;8.00;;;;;;;5.97;64.67;101578.19;4934388;29;20743;-46
2022/01/30 10:58:19;;;;;;;35.03;7.47;;;;;;;5.91;64.26;101584.41;4934131;29;20672;-45
2022/01/30 11:00:53;;;;;;;36.83;7.03;;;;;;;5.94;63.46;101586.16;4936705;29;20193;-42
2022/01/30 11:03:41;;;;;;;37.15;7.25;;;;;;;5.92;64.18;101591.47;4932796;29;20191;-42
2022/01/30 11:06:10;;;;;;;35.08;7.78;;;;;;;5.85;64.21;101604.84;4934398;29;20168;-42
2022/01/30 11:08:39;;;;;;;41.55;8.05;;;;;;;5.80;63.50;101594.22;4934393;29;20211;-42
2022/01/30 11:11:32;;;;;;;42.67;6.72;;;;;;;5.86;63.93;101610.16;4934590;29;20171;-42
2022/01/30 11:19:16;;;;;;;35.65;7.60;;;;;;;5.77;63.75;101597.78;4934225;29;20168;-40
2022/01/30 11:21:43;;;;;;;35.33;7.47;;;;;;;5.90;64.20;101609.25;4933560;29;20172;-44
2022/01/30 11:24:12;;;;;;;37.10;8.82;;;;;;;6.03;64.04;101610.06;4934107;29;20230;-41
2022/01/30 11:26:38;;;;;;;27.38;6.57;;;;;;;6.01;63.25;101616.28;4934043;29;20206;-43
2022/01/30 11:29:07;;;;;;;36.42;7.30;;;;;;;5.78;62.70;101618.16;4934041;29;20171;-42
2022/01/30 11:31:34;;;;;;;26.20;6.45;;;;;;;5.86;62.86;101618.13;4934294;29;20647;-43
2022/01/30 11:34:00;;;;;;;30.63;6.60;;;;;;;5.97;62.76;101634.06;4933787;29;20176;-43
2022/01/30 11:36:26;;;;;;;34.38;6.80;;;;;;;5.89;62.72;101614.56;4934036;29;20183;-41
2022/01/30 11:38:51;;;;;;;28.55;6.90;;;;;;;5.89;62.30;101627.88;4933963;29;20248;-40
2022/01/30 11:41:19;;;;;;;26.45;6.15;;;;;;;6.01;63.34;101633.13;4933726;29;20167;-43
2022/01/30 11:44:19;;;;;;;36.50;6.30;;;;;;;5.96;63.27;101640.25;4932084;29;20286;-43
2022/01/30 11:46:56;;;;;;;33.78;7.47;;;;;;;5.89;63.13;101631.41;4934023;29;20234;-43
2022/01/30 11:49:24;;;;;;;30.08;5.93;;;;;;;5.88;61.54;101631.41;4932381;29;20263;-43
2022/01/30 11:51:54;;;;;;;37.38;7.03;;;;;;;6.03;61.07;101630.47;4933332;29;20191;-42
2022/01/30 11:54:40;;;;;;;31.00;5.60;;;;;;;6.03;60.49;101635.78;4933397;29;20171;-43
2022/01/30 11:57:20;;;;;;;23.70;5.70;;;;;;;6.02;60.18;101636.69;4933710;29;20407;-44
2022/01/30 11:59:51;;;;;;;25.25;5.38;;;;;;;5.94;59.56;101640.25;4933710;29;20194;-41
2022/01/30 12:02:27;;;;;;;29.58;5.82;;;;;;;6.12;59.91;101631.28;4933528;29;20198;-42
2022/01/30 12:05:05;;;;;;;31.25;6.07;;;;;;;6.04;60.47;101637.56;4932854;29;20202;-44
2022/01/30 12:07:42;;;;;;;26.40;6.10;;;;;;;5.97;60.24;101648.22;4933093;29;20294;-43
2022/01/30 12:10:19;;;;;;;34.45;5.63;;;;;;;5.97;59.64;101656.22;4933178;29;20159;-42
2022/01/30 12:12:53;;;;;;;26.13;6.10;;;;;;;5.91;59.21;101658.00;4933322;29;20235;-41
2022/01/30 12:15:36;;;;;;;28.40;5.13;;;;;;;5.83;59.99;101673.97;4933058;29;20190;-43
2022/01/30 12:18:06;;;;;;;27.60;5.38;;;;;;;6.07;60.48;101661.47;4933177;29;20203;-43
2022/01/30 12:20:59;;;;;;;34.10;7.32;;;;;;;6.02;59.75;101657.97;4932899;29;20177;-44
2022/01/30 12:23:30;;;;;;;23.48;5.18;;;;;;;5.98;60.59;101675.72;4932600;29;20250;-42
2022/01/30 12:26:05;;;;;;;31.95;5.72;;;;;;;6.01;60.57;101669.47;4933069;29;20651;-44
2022/01/30 12:28:39;;;;;;;33.13;6.07;;;;;;;6.14;61.00;101661.44;4932768;29;20635;-41
2022/01/30 12:31:25;;;;;;;27.27;5.47;;;;;;;5.90;61.66;101654.47;4933082;29;20189;-41
2022/01/30 12:34:07;;;;;;;26.95;5.80;;;;;;;6.00;61.10;101670.38;4932467;29;20182;-42
2022/01/30 12:36:41;;;;;;;26.48;5.45;;;;;;;6.02;60.50;101668.59;4933055;29;20172;-43
2022/01/30 12:39:16;;;;;;;30.63;6.15;;;;;;;5.88;61.90;101668.63;4932771;29;20171;-41
2022/01/30 12:41:42;;;;;;;28.00;5.18;;;;;;;5.88;61.18;101680.19;4932968;29;20218;-42
2022/01/30 12:44:11;;;;;;;28.45;5.15;;;;;;;5.93;60.69;101673.03;4932622;29;20243;-42